Aérodrome :
LOGIN :

S'inscrire | Disclaimer

   EN    FR    IT 

 










Légende :    VFR   VFR Marginal   IFR   IFR Intensif   IFR Très Intensif
Visi : 
Plafond : 
>= 8 km
>= 3000ft
5 à 8 km
1000 à 3000 ft
1500m à 5 km
500 à 1000 ft
800 à 1500m
200 à 500 ft
< 800m
< 200 ft
Symboles :   Orages  Brouillard  Fortes neiges  Fortes précipitations  Vent > 20 kt
SIGMETs :   Divers  Orages  Givrage  Turbulence  Onde Orograph.  Cendres Volcan.






- Altitude de l'aérodrome : 157 ft
- Code IATA : LTK


OSLK - Bassel Al-Hazad Int.

DERNIER METAR :
  • 300700Z 24012G24KT 9999 SCT025CB BKN030 19/11 Q1012

METARs EXPIRÉS :
  • 300600Z 26012G24KT 9999 SCT026CB BKN030 17/10 Q1016
  • 300500Z 24010G20KT 8000 SCT026 CB BKN030 16/10 Q1010

TAF OSLK
Valide du 30 à 00h jusqu'au 31 à 00h UTC


3000/3024 24025G35KT 6000 SHRA FEW025 CB BKN030



MET'MAP, la Météo Aéronautique d'un coup d'oeil ! - Copyright ORBIFLY Décembre 2007 - Disclaimer

ORBIFLY MET'MAP TEAM :

Programmation & Développement : Alexandra Zaïnal
Sur une idée originale de : Baudouin d'Aumeries
Assistance à la programmation : Marc-Olivier Méhu
Soutien technique & logistique : Manuel Goepfert

Contact : metmap@orbifly.com




SOURCES & CREDITS :

   NOAA